createdAt,value
2018-08-17T00:02:00.524Z,9.40
2018-08-17T00:04:28.644Z,9.13
2018-08-17T00:06:56.764Z,9.40
2018-08-17T00:09:24.896Z,9.03
2018-08-17T00:11:53.608Z,8.93
2018-08-17T00:14:21.761Z,8.10
2018-08-17T00:16:49.885Z,9.13
2018-08-17T00:19:18.006Z,9.37
2018-08-17T00:21:46.836Z,8.10
2018-08-17T00:24:14.976Z,9.40
2018-08-17T00:26:43.093Z,9.17
2018-08-17T00:29:12.069Z,9.20
2018-08-17T00:31:40.192Z,9.60
2018-08-17T00:34:08.339Z,8.03
2018-08-17T00:36:36.465Z,8.80
2018-08-17T00:39:06.683Z,8.20
2018-08-17T00:41:34.808Z,8.43
2018-08-17T00:44:02.958Z,9.53
2018-08-17T00:46:31.856Z,9.10
2018-08-17T00:48:59.985Z,9.50
2018-08-17T00:51:28.104Z,8.20
2018-08-17T00:53:56.233Z,9.70
2018-08-17T00:56:24.357Z,9.80
2018-08-17T00:58:52.490Z,8.90
2018-08-17T01:01:20.626Z,9.37
2018-08-17T01:03:49.593Z,9.93
2018-08-17T01:06:17.747Z,9.80
2018-08-17T01:08:45.887Z,9.17
2018-08-17T01:11:14.034Z,10.20
2018-08-17T01:13:42.175Z,10.07
2018-08-17T01:16:10.314Z,10.20
2018-08-17T01:18:38.452Z,10.00
2018-08-17T01:21:07.288Z,10.00
2018-08-17T01:23:35.502Z,10.10
2018-08-17T01:26:03.632Z,9.13
2018-08-17T01:28:31.773Z,9.63
2018-08-17T01:30:59.901Z,10.23
2018-08-17T01:33:28.042Z,9.67
2018-08-17T01:35:56.190Z,11.67
2018-08-17T01:38:25.114Z,13.57
2018-08-17T01:40:53.273Z,13.40
2018-08-17T01:43:21.398Z,14.27
2018-08-17T01:45:49.529Z,13.83
2018-08-17T01:48:17.702Z,12.57
2018-08-17T01:50:45.832Z,13.53
2018-08-17T01:53:13.978Z,14.30
2018-08-17T01:55:42.594Z,15.23
2018-08-17T01:58:10.975Z,16.87
2018-08-17T02:00:39.134Z,15.03
2018-08-17T02:03:07.568Z,16.43
2018-08-17T02:05:35.739Z,15.27
2018-08-17T02:08:03.885Z,16.97
2018-08-17T02:10:32.041Z,14.00
2018-08-17T02:13:00.181Z,16.07
2018-08-17T02:15:28.327Z,19.00
2018-08-17T02:17:56.456Z,18.00
2018-08-17T02:20:24.597Z,16.40
2018-08-17T02:22:52.743Z,20.07
2018-08-17T02:25:20.881Z,18.00
2018-08-17T02:27:49.614Z,18.27
2018-08-17T02:30:17.802Z,18.67
2018-08-17T02:32:45.945Z,19.20
2018-08-17T02:35:14.103Z,21.77
2018-08-17T02:37:42.238Z,19.70
2018-08-17T02:40:10.402Z,22.90
2018-08-17T02:42:38.749Z,21.73
2018-08-17T02:45:07.171Z,23.07
2018-08-17T02:47:35.373Z,22.07
2018-08-17T02:50:03.830Z,22.10
2018-08-17T02:52:31.995Z,20.27
2018-08-17T02:55:00.131Z,21.57
2018-08-17T02:57:28.279Z,22.53
2018-08-17T02:59:56.514Z,22.50
2018-08-17T03:02:25.370Z,27.40
2018-08-17T03:04:53.534Z,23.67
2018-08-17T03:07:21.683Z,24.87
2018-08-17T03:09:49.814Z,24.27
2018-08-17T03:12:17.954Z,27.07
2018-08-17T03:14:46.110Z,24.87
2018-08-17T03:17:14.268Z,28.23
2018-08-17T03:19:43.057Z,26.30
2018-08-17T03:22:11.357Z,25.60
2018-08-17T03:24:39.504Z,29.70
2018-08-17T03:27:07.638Z,24.30
2018-08-17T03:29:35.797Z,26.57
2018-08-17T03:32:03.934Z,25.30
2018-08-17T03:34:32.135Z,25.17
2018-08-17T03:37:00.297Z,23.70
2018-08-17T03:39:28.470Z,27.00
2018-08-17T03:41:56.678Z,29.07
2018-08-17T03:44:25.565Z,28.43
2018-08-17T03:46:53.714Z,26.43
2018-08-17T03:49:21.854Z,27.30
2018-08-17T03:51:50.043Z,28.47
2018-08-17T03:54:18.165Z,26.23
2018-08-17T03:56:46.329Z,28.97
2018-08-17T03:59:14.459Z,25.40
2018-08-17T04:01:43.288Z,23.53
2018-08-17T04:04:11.462Z,23.53
2018-08-17T04:06:39.614Z,23.77
2018-08-17T04:09:08.926Z,25.30
2018-08-17T04:11:37.093Z,25.63
2018-08-17T04:14:05.262Z,24.93
2018-08-17T04:16:33.423Z,26.37
2018-08-17T04:19:02.303Z,25.00
2018-08-17T04:21:31.112Z,26.67
2018-08-17T04:23:59.355Z,27.10
2018-08-17T04:26:27.410Z,27.63
2018-08-17T04:28:55.540Z,30.20
2018-08-17T04:31:23.695Z,29.43
2018-08-17T04:33:51.824Z,28.17
2018-08-17T04:36:20.731Z,27.67
2018-08-17T04:38:49.567Z,26.40
2018-08-17T04:41:17.743Z,26.10
2018-08-17T04:43:45.912Z,26.33
2018-08-17T04:46:14.058Z,26.37
2018-08-17T04:48:42.182Z,25.23
2018-08-17T04:51:10.342Z,26.00
2018-08-17T04:53:38.750Z,23.20
2018-08-17T04:56:07.218Z,23.60
2018-08-17T04:58:35.402Z,24.77
2018-08-17T05:01:03.559Z,25.20
2018-08-17T05:03:31.815Z,24.70
2018-08-17T05:05:59.862Z,23.97
2018-08-17T05:08:28.014Z,23.43
2018-08-17T05:10:56.162Z,24.60
2018-08-17T05:13:24.916Z,22.80
2018-08-17T05:15:53.087Z,23.40
2018-08-17T05:18:21.225Z,25.37
2018-08-17T05:20:49.373Z,24.27
2018-08-17T05:23:17.535Z,23.87
2018-08-17T05:25:45.662Z,21.80
2018-08-17T05:28:13.879Z,24.03
2018-08-17T05:30:42.740Z,22.37
2018-08-17T05:33:10.864Z,24.20
2018-08-17T05:35:39.108Z,23.60
2018-08-17T05:38:07.254Z,23.30
2018-08-17T05:40:35.450Z,25.10
2018-08-17T05:43:03.620Z,25.97
2018-08-17T05:45:32.394Z,25.10
2018-08-17T05:48:00.674Z,26.30
2018-08-17T05:50:32.349Z,25.53
2018-08-17T05:53:00.763Z,26.73
2018-08-17T05:55:28.985Z,28.20
2018-08-17T05:57:57.157Z,28.63
2018-08-17T06:00:25.652Z,29.70
2018-08-17T06:02:54.387Z,27.80
2018-08-17T06:05:22.655Z,26.33
2018-08-17T06:07:50.834Z,26.50
2018-08-17T06:10:18.971Z,28.13
2018-08-17T06:12:47.114Z,26.57
2018-08-17T06:15:15.254Z,29.10
2018-08-17T06:17:43.394Z,28.80
2018-08-17T06:20:11.940Z,27.83
2018-08-17T06:22:40.073Z,28.43
2018-08-17T06:25:10.621Z,26.70
2018-08-17T06:27:39.261Z,26.70
2018-08-17T06:30:10.489Z,26.73
2018-08-17T06:32:38.714Z,26.17
2018-08-17T06:35:08.279Z,26.00
2018-08-17T06:37:37.194Z,26.10
2018-08-17T06:40:05.475Z,25.53
2018-08-17T06:42:33.738Z,25.30
2018-08-17T06:45:02.209Z,23.40
2018-08-17T06:47:30.814Z,23.63
2018-08-17T06:49:58.947Z,23.80
2018-08-17T06:52:27.081Z,22.90
2018-08-17T06:54:56.005Z,22.20
2018-08-17T06:57:24.289Z,21.87
2018-08-17T06:59:52.426Z,22.23
2018-08-17T07:02:20.594Z,22.00
2018-08-17T07:04:48.746Z,22.03
2018-08-17T07:07:16.878Z,22.27
2018-08-17T07:09:45.022Z,22.80
2018-08-17T07:12:13.493Z,20.73
2018-08-17T07:14:41.644Z,20.70
2018-08-17T07:17:09.800Z,21.83
2018-08-17T07:19:38.283Z,20.57
2018-08-17T07:22:06.463Z,20.70
2018-08-17T07:24:34.633Z,20.27
2018-08-17T07:27:02.805Z,19.97
2018-08-17T07:29:30.942Z,19.47
2018-08-17T07:31:59.172Z,19.50
2018-08-17T07:34:27.536Z,20.17
2018-08-17T07:36:55.693Z,19.93
2018-08-17T07:39:23.876Z,21.10
2018-08-17T07:41:52.022Z,19.47
2018-08-17T07:44:20.157Z,18.90
2018-08-17T07:46:48.350Z,19.90
2018-08-17T07:49:16.506Z,19.13
2018-08-17T07:51:44.658Z,20.40
2018-08-17T07:54:12.971Z,21.23
2018-08-17T07:56:41.091Z,19.23
2018-08-17T07:59:09.339Z,19.73
2018-08-17T08:01:38.145Z,19.70
2018-08-17T08:04:06.334Z,18.63
2018-08-17T08:06:34.488Z,18.80
2018-08-17T08:09:03.073Z,20.60
2018-08-17T08:11:31.210Z,19.70
2018-08-17T08:13:59.413Z,18.40
2018-08-17T08:16:27.551Z,20.10
2018-08-17T08:18:55.715Z,20.20
2018-08-17T08:21:23.829Z,18.77
2018-08-17T08:23:51.974Z,19.33
2018-08-17T08:26:20.642Z,17.57
2018-08-17T08:28:48.801Z,17.93
2018-08-17T08:31:16.942Z,18.00
2018-08-17T08:33:45.090Z,19.27
2018-08-17T08:36:13.274Z,18.60
2018-08-17T08:38:41.418Z,16.93
2018-08-17T08:41:09.545Z,18.67
2018-08-17T08:43:38.139Z,19.27
2018-08-17T08:46:06.309Z,19.87
2018-08-17T08:48:34.431Z,20.43
2018-08-17T08:51:02.612Z,21.03
2018-08-17T08:53:30.746Z,20.57
2018-08-17T08:55:58.920Z,21.70
2018-08-17T08:58:27.015Z,22.03
2018-08-17T09:00:55.835Z,20.97
2018-08-17T09:03:24.033Z,20.57
2018-08-17T09:05:52.156Z,21.37
2018-08-17T09:08:20.429Z,21.23
2018-08-17T09:10:48.486Z,19.90
2018-08-17T09:13:16.627Z,22.07
2018-08-17T09:15:45.481Z,20.20
2018-08-17T09:18:13.609Z,20.53
2018-08-17T09:20:41.755Z,20.50
2018-08-17T09:23:09.882Z,20.37
2018-08-17T09:25:38.029Z,20.60
2018-08-17T09:28:06.194Z,22.40
2018-08-17T09:30:34.358Z,20.70
2018-08-17T09:33:02.638Z,20.87
2018-08-17T09:35:30.842Z,21.10
2018-08-17T09:37:58.974Z,18.93
2018-08-17T09:40:27.117Z,20.33
2018-08-17T09:42:55.242Z,20.57
2018-08-17T09:45:23.637Z,20.60
2018-08-17T09:47:51.765Z,19.93
2018-08-17T09:50:19.910Z,18.90
2018-08-17T09:52:48.059Z,19.90
2018-08-17T09:55:16.202Z,18.73
2018-08-17T09:57:44.466Z,18.40
2018-08-17T10:00:12.501Z,17.93
2018-08-17T10:02:45.954Z,18.70
2018-08-17T10:05:19.603Z,18.23
2018-08-17T10:07:53.069Z,21.23
2018-08-17T10:10:22.790Z,20.73
2018-08-17T10:12:51.670Z,20.67
2018-08-17T10:15:19.868Z,18.90
2018-08-17T10:17:48.157Z,21.27
2018-08-17T10:20:18.753Z,19.00
2018-08-17T10:22:47.028Z,20.47
2018-08-17T10:25:16.336Z,21.30
2018-08-17T10:27:45.700Z,19.80
2018-08-17T10:30:13.967Z,17.80
2018-08-17T10:32:47.629Z,18.60
2018-08-17T10:35:21.373Z,21.17
2018-08-17T10:37:49.504Z,17.97
2018-08-17T10:40:17.638Z,18.90
2018-08-17T10:42:45.819Z,17.30
2018-08-17T10:45:13.993Z,19.80
2018-08-17T10:47:42.120Z,19.20
2018-08-17T10:50:15.805Z,18.00
2018-08-17T10:52:43.933Z,17.40
2018-08-17T10:55:12.549Z,17.97
2018-08-17T10:57:40.683Z,17.00
2018-08-17T11:00:12.543Z,15.70
2018-08-17T11:02:41.270Z,16.27
2018-08-17T11:05:09.408Z,15.40
2018-08-17T11:07:38.548Z,14.37
2018-08-17T11:10:08.675Z,13.40
2018-08-17T11:12:37.214Z,13.60
2018-08-17T11:15:05.755Z,13.03
2018-08-17T11:17:33.906Z,13.40
2018-08-17T11:20:02.038Z,13.30
2018-08-17T11:22:30.182Z,12.87
2018-08-17T11:24:58.783Z,12.50
2018-08-17T11:27:26.919Z,14.40
2018-08-17T11:29:55.054Z,12.80
2018-08-17T11:32:23.270Z,14.30
2018-08-17T11:34:53.674Z,14.20
2018-08-17T11:37:22.272Z,13.20
2018-08-17T11:39:55.869Z,12.70
2018-08-17T11:42:24.359Z,12.87
2018-08-17T11:44:52.494Z,11.37
2018-08-17T11:47:20.778Z,10.17
2018-08-17T11:49:48.917Z,10.30
2018-08-17T11:52:17.195Z,10.00
2018-08-17T11:54:45.402Z,10.23
2018-08-17T11:57:13.550Z,10.40
2018-08-17T11:59:49.858Z,10.00
2018-08-17T12:02:18.402Z,10.40
2018-08-17T12:04:47.119Z,8.80
2018-08-17T12:07:15.298Z,8.90
2018-08-17T12:09:49.290Z,9.83
2018-08-17T12:12:17.424Z,9.30
2018-08-17T12:14:46.677Z,8.80
2018-08-17T12:17:15.161Z,8.70
2018-08-17T12:19:43.300Z,8.40
2018-08-17T12:22:11.438Z,9.60
2018-08-17T12:24:39.643Z,7.60
2018-08-17T12:27:07.714Z,9.63
2018-08-17T12:29:35.909Z,10.37
2018-08-17T12:32:04.068Z,9.23
2018-08-17T12:34:32.181Z,9.83
2018-08-17T12:37:00.314Z,7.90
2018-08-17T12:39:28.450Z,8.93
2018-08-17T12:41:56.579Z,8.97
2018-08-17T12:44:24.700Z,9.00
2018-08-17T12:46:52.845Z,9.03
2018-08-17T12:49:20.971Z,9.20
2018-08-17T12:51:49.107Z,7.93
2018-08-17T12:54:22.710Z,9.10
2018-08-17T12:56:51.642Z,7.63
2018-08-17T12:59:19.814Z,7.90
2018-08-17T13:01:47.956Z,8.63
2018-08-17T13:04:16.262Z,8.50
2018-08-17T13:06:44.413Z,9.10
2018-08-17T13:09:12.641Z,8.30
2018-08-17T13:11:47.710Z,7.37
2018-08-17T13:14:15.930Z,8.00
2018-08-17T13:16:44.450Z,8.00
2018-08-17T13:19:12.590Z,8.50
2018-08-17T13:21:40.817Z,7.00
2018-08-17T13:24:08.965Z,7.83
2018-08-17T13:26:37.109Z,8.13
2018-08-17T13:29:05.249Z,8.20
2018-08-17T13:31:33.370Z,7.00
2018-08-17T13:34:01.494Z,6.80
2018-08-17T13:36:29.820Z,7.77
2018-08-17T13:38:57.942Z,8.40
2018-08-17T13:41:26.066Z,6.80
2018-08-17T13:43:54.237Z,7.03
2018-08-17T13:46:22.369Z,7.00
2018-08-17T13:48:50.769Z,8.67
2018-08-17T13:51:18.980Z,7.50
2018-08-17T13:53:47.110Z,7.53
2018-08-17T13:56:15.233Z,7.50
2018-08-17T13:58:43.377Z,6.97
2018-08-17T14:01:11.758Z,8.00
2018-08-17T14:03:39.991Z,6.70
2018-08-17T14:06:08.120Z,6.20
2018-08-17T14:08:36.262Z,6.80
2018-08-17T14:11:04.380Z,7.00
2018-08-17T14:13:32.522Z,7.50
2018-08-17T14:16:00.657Z,6.33
2018-08-17T14:18:28.793Z,7.60
2018-08-17T14:20:56.943Z,7.30
2018-08-17T14:23:25.144Z,7.60
2018-08-17T14:25:56.482Z,7.53
2018-08-17T14:28:24.671Z,6.57
2018-08-17T14:30:53.866Z,6.57
2018-08-17T14:33:25.215Z,7.30
2018-08-17T14:35:53.381Z,7.27
2018-08-17T14:38:29.152Z,6.30
2018-08-17T14:40:57.286Z,6.93
2018-08-17T14:43:26.010Z,6.47
2018-08-17T14:45:56.243Z,6.00
2018-08-17T14:48:24.398Z,5.90
2018-08-17T14:50:52.549Z,5.30
2018-08-17T14:53:21.818Z,5.90
2018-08-17T14:55:49.942Z,5.73
2018-08-17T14:58:18.101Z,5.50
2018-08-17T15:00:46.273Z,6.40
2018-08-17T15:03:14.452Z,6.70
2018-08-17T15:05:42.613Z,5.50
2018-08-17T15:08:10.871Z,5.77
2018-08-17T15:10:38.990Z,6.53
2018-08-17T15:13:07.222Z,6.17
2018-08-17T15:15:35.351Z,5.93
2018-08-17T15:18:04.561Z,5.90
2018-08-17T15:20:32.814Z,5.60
2018-08-17T15:23:03.022Z,5.67
2018-08-17T15:25:31.156Z,5.77
2018-08-17T15:28:00.396Z,4.50
2018-08-17T15:30:28.558Z,5.70
2018-08-17T15:32:56.746Z,5.20
2018-08-17T15:35:25.961Z,5.37
2018-08-17T15:37:59.835Z,5.13
2018-08-17T15:40:28.023Z,4.73
2018-08-17T15:43:15.962Z,5.33
2018-08-17T15:45:44.299Z,6.03
2018-08-17T15:48:12.501Z,5.40
2018-08-17T15:50:44.457Z,5.90
2018-08-17T15:53:12.601Z,7.13
2018-08-17T15:55:41.749Z,6.60
2018-08-17T15:58:10.945Z,7.10
2018-08-17T16:00:41.174Z,5.63
2018-08-17T16:03:09.419Z,7.23
2018-08-17T16:05:37.674Z,6.30
2018-08-17T16:08:07.012Z,6.90
2018-08-17T16:10:36.195Z,5.77
2018-08-17T16:13:05.496Z,5.83
2018-08-17T16:15:33.711Z,6.67
2018-08-17T16:18:03.905Z,5.27
2018-08-17T16:20:32.039Z,6.70
2018-08-17T16:23:00.246Z,7.17
2018-08-17T16:25:32.632Z,6.33
2018-08-17T16:28:01.817Z,8.50
2018-08-17T16:30:30.034Z,6.70
2018-08-17T16:32:58.287Z,7.90
2018-08-17T16:35:26.462Z,7.70
2018-08-17T16:37:55.666Z,7.40
2018-08-17T16:40:23.838Z,7.70
2018-08-17T16:42:53.162Z,7.33
2018-08-17T16:45:21.454Z,8.87
2018-08-17T16:47:49.679Z,7.50
2018-08-17T16:50:17.870Z,7.70
2018-08-17T16:52:46.088Z,8.53
2018-08-17T16:55:14.412Z,8.33
2018-08-17T16:57:42.567Z,7.20
2018-08-17T17:00:11.405Z,7.00
2018-08-17T17:02:40.109Z,6.93
2018-08-17T17:05:11.830Z,5.87
2018-08-17T17:07:39.993Z,6.03
2018-08-17T17:10:09.270Z,5.70
2018-08-17T17:12:37.450Z,6.17
2018-08-17T17:15:13.050Z,6.13
2018-08-17T17:17:42.344Z,5.87
2018-08-17T17:20:10.478Z,5.67
2018-08-17T17:22:38.667Z,5.80
2018-08-17T17:25:12.446Z,6.07
2018-08-17T17:27:46.481Z,5.87
2018-08-17T17:30:14.670Z,6.10
2018-08-17T17:32:42.803Z,6.23
2018-08-17T17:35:10.985Z,6.00
2018-08-17T17:37:40.178Z,6.90
2018-08-17T17:40:08.367Z,6.70
2018-08-17T17:42:36.487Z,6.00
2018-08-17T17:45:05.422Z,6.57
2018-08-17T17:47:33.598Z,5.93
2018-08-17T17:50:01.725Z,6.27
2018-08-17T17:52:29.958Z,5.47
2018-08-17T17:54:58.113Z,6.00
2018-08-17T17:57:27.327Z,5.60
2018-08-17T17:59:57.157Z,6.37
2018-08-17T18:02:25.945Z,5.80
2018-08-17T18:04:54.098Z,5.23
2018-08-17T18:07:23.925Z,5.30
2018-08-17T18:09:52.073Z,5.33
2018-08-17T18:12:20.188Z,5.83
2018-08-17T18:14:48.320Z,5.53
2018-08-17T18:17:16.497Z,6.60
2018-08-17T18:19:44.669Z,5.83
2018-08-17T18:22:18.492Z,5.33
2018-08-17T18:24:46.653Z,5.93
2018-08-17T18:27:14.849Z,5.40
2018-08-17T18:29:42.996Z,5.30
2018-08-17T18:32:11.207Z,5.77
2018-08-17T18:34:39.366Z,5.00
2018-08-17T18:37:07.558Z,6.00
2018-08-17T18:39:35.714Z,5.60
2018-08-17T18:42:03.923Z,4.80
2018-08-17T18:44:33.073Z,5.00
2018-08-17T18:47:01.255Z,5.90
2018-08-17T18:49:29.409Z,5.80
2018-08-17T18:51:57.602Z,4.90
2018-08-17T18:54:25.790Z,5.30
2018-08-17T18:56:53.954Z,5.60
2018-08-17T18:59:22.132Z,5.10
2018-08-17T19:01:50.285Z,4.90
2018-08-17T19:04:18.461Z,4.80
2018-08-17T19:06:46.639Z,5.07
2018-08-17T19:09:14.827Z,5.00
2018-08-17T19:11:43.006Z,5.27
2018-08-17T19:14:11.173Z,4.90
2018-08-17T19:16:39.346Z,5.03
2018-08-17T19:19:07.510Z,4.50
2018-08-17T19:21:35.690Z,4.70
2018-08-17T19:24:08.637Z,4.30
2018-08-17T19:26:36.854Z,4.90
2018-08-17T19:29:05.036Z,5.50
2018-08-17T19:31:33.214Z,4.90
2018-08-17T19:34:01.384Z,5.30
2018-08-17T19:36:29.497Z,5.30
2018-08-17T19:38:57.705Z,5.50
2018-08-17T19:41:25.899Z,5.30
2018-08-17T19:43:54.186Z,4.97
2018-08-17T19:46:22.464Z,5.23
2018-08-17T19:48:50.512Z,4.60
2018-08-17T19:51:19.534Z,4.90
2018-08-17T19:53:48.030Z,4.80
2018-08-17T19:56:16.498Z,4.60
2018-08-17T19:58:44.650Z,4.00
2018-08-17T20:01:12.827Z,4.40
2018-08-17T20:03:41.179Z,4.90
2018-08-17T20:06:09.383Z,4.50
2018-08-17T20:08:38.574Z,4.77
2018-08-17T20:11:06.756Z,4.50
2018-08-17T20:13:34.942Z,3.90
2018-08-17T20:16:08.855Z,3.83
2018-08-17T20:18:37.010Z,4.40
2018-08-17T20:21:05.194Z,4.07
2018-08-17T20:23:33.367Z,4.10
2018-08-17T20:26:01.669Z,4.33
2018-08-17T20:28:30.033Z,3.97
2018-08-17T20:30:58.182Z,4.40
2018-08-17T20:33:29.298Z,4.50
2018-08-17T20:35:57.837Z,4.57
2018-08-17T20:38:26.004Z,4.40
2018-08-17T20:40:58.378Z,4.67
2018-08-17T20:43:27.187Z,5.37
2018-08-17T20:45:55.369Z,6.03
2018-08-17T20:48:23.687Z,6.73
2018-08-17T20:50:52.898Z,6.53
2018-08-17T20:53:21.065Z,7.80
2018-08-17T20:55:49.252Z,7.27
2018-08-17T20:58:17.434Z,8.10
2018-08-17T21:00:45.611Z,7.83
2018-08-17T21:03:13.771Z,7.67
2018-08-17T21:05:41.946Z,8.20
2018-08-17T21:08:10.143Z,9.07
2018-08-17T21:10:38.278Z,9.00
2018-08-17T21:13:06.482Z,8.80
2018-08-17T21:15:34.651Z,10.00
2018-08-17T21:18:02.823Z,9.63
2018-08-17T21:20:30.981Z,9.33
2018-08-17T21:22:59.170Z,9.70
2018-08-17T21:25:27.321Z,9.37
2018-08-17T21:27:55.508Z,9.43
2018-08-17T21:30:23.691Z,10.13
2018-08-17T21:32:51.861Z,10.00
2018-08-17T21:35:20.034Z,10.40
2018-08-17T21:37:48.206Z,9.17
2018-08-17T21:40:24.474Z,9.00
2018-08-17T21:42:52.618Z,9.70
2018-08-17T21:45:20.734Z,11.23
2018-08-17T21:47:48.876Z,10.57
2018-08-17T21:50:17.079Z,11.50
2018-08-17T21:52:45.789Z,10.80
2018-08-17T21:55:14.274Z,10.30
2018-08-17T21:57:42.670Z,11.80
2018-08-17T22:00:22.089Z,10.20
2018-08-17T22:02:50.375Z,10.97
2018-08-17T22:05:24.731Z,10.87
2018-08-17T22:07:52.910Z,11.60
2018-08-17T22:10:21.094Z,11.47
2018-08-17T22:12:49.277Z,10.30
2018-08-17T22:15:17.440Z,11.87
2018-08-17T22:17:45.616Z,10.57
2018-08-17T22:20:13.800Z,11.67
2018-08-17T22:22:41.969Z,11.00
2018-08-17T22:25:11.867Z,11.70
2018-08-17T22:27:40.142Z,11.57
2018-08-17T22:30:15.558Z,11.70
2018-08-17T22:32:43.681Z,11.37
2018-08-17T22:35:12.217Z,11.97
2018-08-17T22:37:40.329Z,11.63
2018-08-17T22:40:08.502Z,10.93
2018-08-17T22:42:36.665Z,12.00
2018-08-17T22:45:04.902Z,10.80
2018-08-17T22:47:33.121Z,11.17
2018-08-17T22:50:01.650Z,10.70
2018-08-17T22:52:34.085Z,10.10
2018-08-17T22:55:03.627Z,11.80
2018-08-17T22:57:32.190Z,12.60
2018-08-17T23:00:17.568Z,10.87
2018-08-17T23:02:46.770Z,10.77
2018-08-17T23:05:19.040Z,10.47
2018-08-17T23:07:47.198Z,10.00
2018-08-17T23:10:17.237Z,10.50
2018-08-17T23:12:46.422Z,10.80
2018-08-17T23:15:14.604Z,10.50
2018-08-17T23:17:45.357Z,10.80
2018-08-17T23:20:13.602Z,11.13
2018-08-17T23:22:45.607Z,10.37
2018-08-17T23:25:13.966Z,9.57
2018-08-17T23:27:42.065Z,10.90
2018-08-17T23:30:10.206Z,10.63
2018-08-17T23:32:38.349Z,10.40
2018-08-17T23:35:06.586Z,10.00
2018-08-17T23:37:34.805Z,10.57
2018-08-17T23:40:03.011Z,9.73
2018-08-17T23:42:31.141Z,10.50
2018-08-17T23:44:59.330Z,9.90
2018-08-17T23:47:27.506Z,9.80
2018-08-17T23:49:55.690Z,10.07
2018-08-17T23:52:23.902Z,10.60
2018-08-17T23:54:52.136Z,10.87
2018-08-17T23:57:20.290Z,10.20
2018-08-17T23:59:48.465Z,10.70
